OKBK/KWI METAR and TAF weather

Enter ICAO airport designator
Station Type Date Time Source
OKBK METAR 2021/05/15 23:00 UTC NOAA

OKBK 152300Z 28004KT 8000 SKC 32/02 Q1002 NOSIG


Station Type Date Time Source
OKBK Decoded METAR 2021/05/15 23:00 UTC NOAA

Kuwait Internationalairport, Kuwait (OKBK) 29-13N 047-59E 55M
May 15, 2021 - 07:00 PM EDT / 2021.05.15 2300 UTC
Wind: from the W (280 degrees) at 5 MPH (4 KT):0
Visibility: 4 mile(s):0
Sky conditions: clear
Temperature: 89 F (32 C)
Dew Point: 35 F (2 C)
Relative Humidity: 14%
Pressure (altimeter): 29.59 in. Hg (1002 hPa)
ob: OKBK 152300Z 28004KT 8000 SKC 32/02 Q1002 NOSIG
cycle: 23

Station Type Date Time Source
OKBK TAF 2021/05/15 18:45 UTC NOAA

TAF TAF OKBK 151645Z 1518/1624 34008G18KT 7000 NSC

Example: see airport list